Time;durP1;ratioP1;P1;durP2;ratioP2;P2;SDS_P1;SDS_P2;PMS_P1;PMS_P2;Temp;Humidity;BMP_temperature;BMP_pressure;BME280_temperature;BME280_humidity;BME280_pressure;Samples;Min_cycle;Max_cycle;Signal;HPM_P1;HPM_P2
2022/09/21 00:00:25;;;;;;;3.42;1.65;;;;;;;10.97;72.76;100568.41;5009843;28;20441;-79
2022/09/21 00:02:54;;;;;;;3.95;1.77;;;;;;;11.22;72.79;100626.22;5011990;28;20472;-79
2022/09/21 00:05:19;;;;;;;5.75;3.40;;;;;;;11.18;72.74;100626.19;5046485;28;20061;-79
2022/09/21 00:07:45;;;;;;;4.03;2.05;;;;;;;11.03;72.79;100602.56;5045302;28;20056;-80
2022/09/21 00:10:10;;;;;;;9.45;3.15;;;;;;;11.25;72.60;100641.97;5044463;28;20052;-78
2022/09/21 00:12:37;;;;;;;4.10;1.80;;;;;;;10.77;72.83;100542.13;5027195;28;20060;-80
2022/09/21 00:15:12;;;;;;;4.47;1.65;;;;;;;11.30;72.18;100641.06;5026560;28;20037;-78
2022/09/21 00:17:38;;;;;;;4.65;2.38;;;;;;;10.29;73.09;100478.19;5024087;28;20054;-78
2022/09/21 00:20:04;;;;;;;5.72;1.80;;;;;;;10.37;72.59;100479.06;5002145;28;20359;-79
2022/09/21 00:22:32;;;;;;;4.50;1.85;;;;;;;11.29;73.45;100648.97;4998262;28;20052;-79
2022/09/21 00:24:57;;;;;;;5.30;1.92;;;;;;;10.47;72.54;100496.59;5018385;28;20060;-79
2022/09/21 00:27:28;;;;;;;5.00;1.80;;;;;;;11.04;72.92;100588.53;5027105;28;20032;-78
2022/09/21 00:30:05;;;;;;;4.75;2.03;;;;;;;10.38;74.00;100493.09;5001027;28;20126;-80
2022/09/21 00:32:32;;;;;;;4.20;2.25;;;;;;;10.63;74.12;100533.34;5006933;28;20069;-80
2022/09/21 00:34:59;;;;;;;6.20;2.72;;;;;;;10.23;73.93;100475.53;5006749;28;21233;-79
2022/09/21 00:37:26;;;;;;;4.50;2.20;;;;;;;11.31;74.28;100642.84;5006081;28;20053;-79
2022/09/21 00:39:52;;;;;;;10.35;2.72;;;;;;;10.47;74.27;100490.50;5026247;28;20037;-79
2022/09/21 00:42:23;;;;;;;9.73;2.53;;;;;;;10.95;75.27;100573.63;5026920;28;20043;-79
2022/09/21 00:44:49;;;;;;;7.55;1.88;;;;;;;11.17;76.04;100629.69;5027546;28;20045;-79
2022/09/21 00:47:17;;;;;;;5.97;2.72;;;;;;;11.15;76.49;100612.19;5030415;28;20045;-80
2022/09/21 00:49:53;;;;;;;4.60;2.25;;;;;;;10.40;76.82;100502.72;5028186;28;20045;-79
2022/09/21 00:52:19;;;;;;;3.60;1.48;;;;;;;10.44;77.33;100527.19;5010764;28;20069;-78
2022/09/21 00:54:53;;;;;;;6.40;1.83;;;;;;;10.13;78.03;100474.63;5019262;28;20044;-80
2022/09/21 00:57:21;;;;;;;6.80;1.70;;;;;;;11.12;78.23;100659.44;5030408;28;20061;-81
2022/09/21 00:59:49;;;;;;;3.33;1.63;;;;;;;10.50;77.88;100525.47;4995695;28;20122;-76
2022/09/21 01:02:16;;;;;;;4.63;1.65;;;;;;;10.67;77.38;100600.72;5010350;28;20118;-79
2022/09/21 01:04:44;;;;;;;4.20;2.13;;;;;;;10.22;78.44;100534.09;5010142;28;20104;-79
2022/09/21 01:07:14;;;;;;;4.97;2.10;;;;;;;11.06;77.50;100649.81;4992123;28;20046;-79
2022/09/21 01:09:42;;;;;;;3.55;2.10;;;;;;;10.18;78.27;100506.09;4992229;28;20033;-78
2022/09/21 01:12:34;;;;;;;3.33;1.73;;;;;;;10.71;77.80;100599.84;5009850;28;20049;-80
2022/09/21 01:15:22;;;;;;;9.55;2.60;;;;;;;11.12;77.28;100651.56;5008709;28;20128;-80
2022/09/21 01:18:07;;;;;;;3.58;2.15;;;;;;;10.80;79.78;100636.63;4981687;28;20472;-81
2022/09/21 01:21:20;;;;;;;5.47;2.22;;;;;;;10.99;79.96;100653.31;4991067;28;20046;-80
2022/09/21 01:24:08;;;;;;;7.32;2.17;;;;;;;10.29;78.72;100507.91;4979882;28;20041;-79
2022/09/21 01:27:13;;;;;;;4.95;1.80;;;;;;;10.33;80.43;100524.56;5029463;28;20046;-79
2022/09/21 01:29:58;;;;;;;5.38;1.80;;;;;;;11.11;82.22;100641.94;5029519;28;20584;-79
2022/09/21 01:32:50;;;;;;;4.32;1.98;;;;;;;11.04;82.05;100613.91;5022765;28;20129;-79
2022/09/21 01:35:28;;;;;;;4.78;2.28;;;;;;;10.48;81.73;100479.09;5009758;28;20101;-80
2022/09/21 01:38:29;;;;;;;5.53;1.60;;;;;;;11.45;82.49;100645.47;5009548;28;20053;-79
2022/09/21 01:41:01;;;;;;;5.55;2.35;;;;;;;11.18;83.64;100635.81;5002007;28;20065;-80
2022/09/21 01:43:33;;;;;;;6.15;2.67;;;;;;;10.30;86.10;100548.13;5010007;28;20123;-79
2022/09/21 01:46:12;;;;;;;5.65;2.65;;;;;;;11.23;84.59;100639.31;5009450;28;20073;-79
2022/09/21 01:48:40;;;;;;;3.83;2.15;;;;;;;10.51;84.14;100503.63;5010436;28;20458;-81
2022/09/21 01:51:09;;;;;;;5.90;2.30;;;;;;;10.41;84.59;100540.31;4996307;28;20057;-79
2022/09/21 01:54:08;;;;;;;8.63;2.47;;;;;;;11.36;83.16;100648.97;4990385;28;20043;-80
2022/09/21 01:56:57;;;;;;;7.68;3.17;;;;;;;10.60;82.72;100501.88;5001820;28;20129;-81
2022/09/21 01:59:46;;;;;;;7.47;2.50;;;;;;;11.52;83.22;100649.84;5009813;28;20049;-81
2022/09/21 02:02:18;;;;;;;7.63;2.13;;;;;;;10.67;83.25;100507.13;5002141;28;20117;-79
2022/09/21 02:04:43;;;;;;;3.83;2.20;;;;;;;11.29;81.84;100612.19;4991499;28;20129;-78
2022/09/21 02:07:10;;;;;;;3.85;1.70;;;;;;;10.77;81.64;100519.38;5009447;28;20134;-79
2022/09/21 02:09:36;;;;;;;9.23;2.22;;;;;;;11.02;81.30;100552.66;5009792;28;20021;-79
2022/09/21 02:12:03;;;;;;;6.32;2.35;;;;;;;10.90;80.02;100514.13;5006337;28;20486;-78
2022/09/21 02:14:32;;;;;;;6.10;2.78;;;;;;;11.72;79.96;100643.72;5029166;28;20164;-79
2022/09/21 02:17:25;;;;;;;3.42;1.75;;;;;;;11.86;79.07;100664.72;5027385;28;20080;-79
2022/09/21 02:20:06;;;;;;;4.23;2.20;;;;;;;11.62;81.06;100662.13;5021714;28;20049;-78
2022/09/21 02:22:58;;;;;;;5.78;2.08;;;;;;;11.74;79.21;100658.59;5008114;28;20046;-81
2022/09/21 02:25:56;;;;;;;5.93;2.10;;;;;;;11.74;78.96;100673.50;5014951;28;20045;-79
2022/09/21 02:28:24;;;;;;;4.20;2.10;;;;;;;11.77;80.18;100676.13;5001676;28;20772;-80
2022/09/21 02:31:14;;;;;;;3.35;1.85;;;;;;;11.75;79.54;100655.09;5028483;28;20033;-78
2022/09/21 02:33:51;;;;;;;8.63;2.40;;;;;;;11.67;77.69;100658.63;5028184;28;20044;-77
2022/09/21 02:36:53;;;;;;;7.38;2.63;;;;;;;11.58;78.63;100664.75;5028360;28;20111;-76
2022/09/21 02:39:30;;;;;;;4.65;2.20;;;;;;;11.64;78.99;100662.13;5010713;28;20120;-78
2022/09/21 02:42:20;;;;;;;5.57;2.47;;;;;;;10.91;79.39;100522.03;5033159;28;20053;-78
2022/09/21 02:44:54;;;;;;;8.75;2.20;;;;;;;11.92;78.82;100670.88;5030613;28;20145;-78
2022/09/21 02:47:52;;;;;;;7.18;2.22;;;;;;;11.97;78.63;100670.88;5028610;28;20079;-78
2022/09/21 02:50:28;;;;;;;5.43;2.72;;;;;;;11.64;79.78;100632.34;5021567;28;20082;-78
2022/09/21 02:52:56;;;;;;;7.45;2.30;;;;;;;11.81;80.52;100665.59;5048166;28;20048;-79
2022/09/21 02:55:22;;;;;;;5.40;2.95;;;;;;;11.13;79.51;100551.78;5033055;28;20044;-78
2022/09/21 02:57:49;;;;;;;9.60;2.63;;;;;;;11.73;79.51;100656.84;5028482;28;20139;-80
2022/09/21 03:00:18;;;;;;;5.00;2.20;;;;;;;11.76;79.12;100677.88;5028109;28;20145;-78
2022/09/21 03:02:45;;;;;;;2.90;1.70;;;;;;;11.18;78.51;100536.00;5027835;28;20095;-80
2022/09/21 03:05:12;;;;;;;7.90;2.22;;;;;;;11.28;77.75;100529.88;5027697;28;20073;-78
2022/09/21 03:07:37;;;;;;;7.25;2.60;;;;;;;11.92;79.00;100668.25;5027423;28;20091;-78
2022/09/21 03:10:03;;;;;;;8.55;3.05;;;;;;;11.85;80.05;100645.44;5027653;28;20029;-79
2022/09/21 03:12:29;;;;;;;5.38;3.13;;;;;;;11.14;79.80;100516.78;4991713;28;20173;-79
2022/09/21 03:14:55;;;;;;;4.50;2.53;;;;;;;12.03;79.68;100669.13;5007814;28;20108;-79
2022/09/21 03:17:21;;;;;;;5.63;2.20;;;;;;;12.10;79.41;100664.69;5006252;28;20046;-78
2022/09/21 03:19:46;;;;;;;7.38;2.65;;;;;;;11.80;79.92;100628.81;4987720;28;20096;-78
2022/09/21 03:22:12;;;;;;;5.15;2.13;;;;;;;11.16;80.05;100525.50;4970782;28;20046;-77
2022/09/21 03:24:46;;;;;;;5.43;2.95;;;;;;;11.96;80.23;100643.72;5006155;28;20037;-80
2022/09/21 03:27:17;;;;;;;4.13;2.30;;;;;;;11.94;80.57;100660.34;5009498;28;20049;-80
2022/09/21 03:29:43;;;;;;;7.93;3.42;;;;;;;11.20;80.97;100532.50;5020121;28;20044;-81
2022/09/21 03:32:09;;;;;;;6.43;2.80;;;;;;;12.07;80.61;100677.00;5027516;28;20030;-80
2022/09/21 03:34:34;;;;;;;6.43;3.17;;;;;;;11.26;80.81;100565.78;5027520;28;20493;-81
2022/09/21 03:37:04;;;;;;;7.60;2.95;;;;;;;12.03;79.72;100684.00;5017546;28;20474;-79
2022/09/21 03:39:30;;;;;;;9.88;3.15;;;;;;;12.04;78.74;100676.13;5008240;28;20057;-79
2022/09/21 03:41:56;;;;;;;7.28;3.25;;;;;;;11.84;79.60;100676.09;5007309;28;20076;-80
2022/09/21 03:44:25;;;;;;;10.07;3.22;;;;;;;11.98;78.77;100680.50;5007437;28;20058;-80
2022/09/21 03:46:51;;;;;;;9.70;2.85;;;;;;;12.09;79.09;100689.28;5007073;28;20498;-78
2022/09/21 03:49:17;;;;;;;11.10;4.05;;;;;;;11.39;79.23;100569.28;5007503;28;20046;-77
2022/09/21 03:51:43;;;;;;;8.70;3.95;;;;;;;11.38;78.92;100554.41;4989656;28;20047;-79
2022/09/21 03:54:09;;;;;;;8.15;3.13;;;;;;;12.10;78.24;100669.09;4995888;28;20501;-79
2022/09/21 03:56:34;;;;;;;10.70;3.65;;;;;;;12.16;77.25;100693.63;5019988;28;20060;-80
2022/09/21 03:59:00;;;;;;;9.27;4.03;;;;;;;11.36;76.75;100553.53;5007219;28;20050;-79
2022/09/21 04:01:25;;;;;;;9.15;3.80;;;;;;;11.80;76.88;100677.00;5007151;28;20042;-79
2022/09/21 04:03:51;;;;;;;6.55;3.38;;;;;;;11.98;77.13;100712.06;5007190;28;20042;-79
2022/09/21 04:06:17;;;;;;;6.45;3.75;;;;;;;11.11;76.60;100552.66;5007559;28;20042;-77
2022/09/21 04:08:42;;;;;;;11.77;4.15;;;;;;;11.32;75.99;100573.66;4989777;28;20492;-80
2022/09/21 04:11:10;;;;;;;6.53;4.38;;;;;;;11.32;76.12;100593.81;4988944;28;20049;-77
2022/09/21 04:13:36;;;;;;;8.00;4.07;;;;;;;11.18;76.59;100584.16;4989224;28;20045;-78
2022/09/21 04:16:01;;;;;;;11.13;3.42;;;;;;;11.48;76.76;100631.47;5013045;28;20389;-79
2022/09/21 04:18:27;;;;;;;10.38;4.55;;;;;;;11.66;76.05;100693.63;5026481;28;20569;-78
2022/09/21 04:20:52;;;;;;;14.77;4.82;;;;;;;10.94;75.48;100569.28;5012498;28;20049;-78
2022/09/21 04:23:19;;;;;;;10.45;3.42;;;;;;;11.74;74.82;100705.03;5011143;28;20041;-77
2022/09/21 04:25:48;;;;;;;8.93;3.53;;;;;;;11.79;75.58;100711.19;5010873;28;20057;-77
2022/09/21 04:28:13;;;;;;;12.18;4.85;;;;;;;11.06;73.96;100564.91;4993363;28;20046;-80
2022/09/21 04:30:39;;;;;;;12.43;4.68;;;;;;;11.52;73.68;100630.56;5011500;28;20038;-80
2022/09/21 04:33:06;;;;;;;8.57;4.30;;;;;;;11.75;74.11;100714.69;5010533;28;20057;-78
2022/09/21 04:35:31;;;;;;;6.60;4.13;;;;;;;11.97;73.70;100726.97;5010221;28;20073;-80
2022/09/21 04:37:57;;;;;;;13.73;4.35;;;;;;;11.84;73.78;100712.91;5010173;28;20053;-79
2022/09/21 04:40:23;;;;;;;16.25;3.63;;;;;;;11.42;73.08;100616.56;5010112;28;20476;-79
2022/09/21 04:42:52;;;;;;;4.35;2.90;;;;;;;11.66;73.14;100669.97;5010358;28;20041;-78
2022/09/21 04:45:19;;;;;;;10.02;3.78;;;;;;;11.01;73.03;100580.66;5010294;28;20049;-80
2022/09/21 04:47:44;;;;;;;13.93;4.18;;;;;;;11.34;74.31;100697.13;5009966;28;20125;-78
2022/09/21 04:50:10;;;;;;;13.38;4.30;;;;;;;10.95;73.25;100607.75;5005166;28;20141;-78
2022/09/21 04:52:36;;;;;;;6.03;3.05;;;;;;;11.25;72.45;100603.44;4990351;28;20046;-79
2022/09/21 04:55:01;;;;;;;9.13;5.43;;;;;;;11.92;71.73;100723.47;4981053;28;20062;-81
2022/09/21 04:57:27;;;;;;;10.73;5.30;;;;;;;11.65;72.34;100694.53;5017620;28;20064;-80
2022/09/21 04:59:52;;;;;;;9.95;4.18;;;;;;;11.30;71.54;100641.06;5030013;28;20041;-79
2022/09/21 05:02:18;;;;;;;15.98;4.22;;;;;;;11.65;70.89;100665.63;5011629;28;20540;-81
2022/09/21 05:04:43;;;;;;;9.55;4.30;;;;;;;11.24;70.65;100583.31;5029747;28;20061;-80
2022/09/21 05:07:09;;;;;;;7.65;3.95;;;;;;;11.91;70.13;100679.63;5029760;28;20053;-80
2022/09/21 05:12:18;;;;;;;7.43;4.18;;;;;;;11.97;70.21;100705.94;5027200;28;20096;-78
2022/09/21 05:14:44;;;;;;;16.30;4.70;;;;;;;12.17;70.75;100724.31;5030022;28;20045;-79
2022/09/21 05:17:11;;;;;;;17.30;4.38;;;;;;;12.16;70.13;100722.56;4994695;28;20709;-79
2022/09/21 05:19:37;;;;;;;14.82;6.63;;;;;;;11.21;70.72;100557.00;5009223;28;20058;-77
2022/09/21 05:22:02;;;;;;;7.25;3.30;;;;;;;11.25;70.34;100595.53;4988452;28;20050;-80
2022/09/21 05:24:28;;;;;;;9.05;3.53;;;;;;;11.15;70.10;100633.19;5005552;28;20040;-77
2022/09/21 05:26:53;;;;;;;11.80;4.43;;;;;;;11.70;70.36;100729.56;5029416;28;20504;-79
2022/09/21 05:29:25;;;;;;;8.68;4.53;;;;;;;11.44;69.50;100663.88;5021378;28;20033;-80
2022/09/21 05:31:57;;;;;;;12.85;3.70;;;;;;;12.00;69.32;100726.09;5008933;28;20054;-78
2022/09/21 05:34:44;;;;;;;10.73;4.70;;;;;;;12.16;69.19;100729.59;5009688;28;20042;-78
2022/09/21 05:37:24;;;;;;;26.65;4.65;;;;;;;12.14;70.45;100737.47;5009687;28;20065;-78
2022/09/21 05:39:50;;;;;;;10.95;3.70;;;;;;;11.73;70.29;100684.88;5021388;28;20318;-75
2022/09/21 05:42:16;;;;;;;12.93;3.30;;;;;;;12.28;68.81;100736.59;5019135;28;20557;-78
2022/09/21 05:44:42;;;;;;;8.98;4.57;;;;;;;11.57;68.01;100598.16;5009825;28;20049;-79
2022/09/21 05:47:23;;;;;;;15.10;3.88;;;;;;;12.30;67.86;100751.50;5009519;28;20050;-80
2022/09/21 05:50:25;;;;;;;8.20;3.85;;;;;;;12.25;68.01;100737.47;5007149;28;20046;-79
2022/09/21 05:52:55;;;;;;;10.05;4.53;;;;;;;12.27;67.46;100735.72;4967768;28;20075;-78
2022/09/21 05:55:37;;;;;;;7.40;3.30;;;;;;;11.42;67.31;100577.16;5017084;28;20159;-78
2022/09/21 05:58:19;;;;;;;8.13;3.47;;;;;;;11.41;67.68;100581.53;5010014;28;20057;-79
2022/09/21 06:00:44;;;;;;;12.27;3.88;;;;;;;12.53;66.08;100740.06;5029299;28;20116;-79
2022/09/21 06:03:25;;;;;;;19.05;3.90;;;;;;;12.40;66.98;100686.56;5028178;28;20049;-78
2022/09/21 06:05:50;;;;;;;9.18;3.80;;;;;;;11.84;67.03;100617.38;5028086;28;20053;-78
2022/09/21 06:08:16;;;;;;;9.95;3.90;;;;;;;11.99;66.65;100598.13;5028695;28;20100;-78
2022/09/21 06:10:42;;;;;;;15.15;4.68;;;;;;;12.12;64.89;100597.19;5028549;28;20073;-78
2022/09/21 06:13:07;;;;;;;6.05;3.35;;;;;;;11.95;65.46;100586.72;5028055;28;20048;-79
2022/09/21 06:15:37;;;;;;;8.43;3.95;;;;;;;12.66;66.38;100712.78;5028769;28;20068;-78
2022/09/21 06:18:05;;;;;;;18.90;4.18;;;;;;;11.65;64.57;100507.91;5008721;28;20513;-79
2022/09/21 06:20:31;;;;;;;8.00;2.88;;;;;;;12.25;63.91;100592.78;5020040;28;20038;-78
2022/09/21 06:23:04;;;;;;;21.50;3.95;;;;;;;12.93;63.56;100714.44;5008915;28;20065;-79
2022/09/21 06:25:33;;;;;;;;;;;;;;;13.05;63.31;100737.22;5028141;28;20147;-86
2022/09/21 06:28:17;;;;;;;10.45;2.95;;;;;;;12.98;61.63;100712.66;5028803;28;20404;-85
2022/09/21 06:30:43;;;;;;;12.60;3.28;;;;;;;11.90;62.98;100493.84;5028621;28;20029;-80
2022/09/21 06:33:09;;;;;;;13.80;2.80;;;;;;;13.37;61.56;100742.34;5027865;28;20183;-79
2022/09/21 06:35:36;;;;;;;7.57;2.03;;;;;;;13.48;61.77;100737.84;5030738;28;20045;-80
2022/09/21 06:38:06;;;;;;;7.50;3.30;;;;;;;13.69;61.93;100735.94;5048436;28;20110;-79
2022/09/21 06:40:33;;;;;;;7.03;2.53;;;;;;;13.39;63.33;100723.88;5047537;28;20037;-80
2022/09/21 06:43:01;;;;;;;5.32;2.33;;;;;;;12.76;60.97;100600.41;5046402;28;20147;-80
2022/09/21 06:45:28;;;;;;;9.73;3.55;;;;;;;13.41;61.01;100732.63;5048203;28;20033;-79
2022/09/21 06:47:54;;;;;;;10.93;4.47;;;;;;;13.19;61.33;100705.53;5047997;28;20048;-80
2022/09/21 06:50:20;;;;;;;8.18;3.00;;;;;;;13.43;60.21;100694.84;5035143;28;20879;-79
2022/09/21 06:52:45;;;;;;;10.18;2.85;;;;;;;13.65;60.75;100702.56;5007310;28;20161;-79
2022/09/21 06:55:12;;;;;;;5.10;2.38;;;;;;;13.04;60.23;100628.34;5020614;28;20049;-80
2022/09/21 06:57:37;;;;;;;5.93;2.50;;;;;;;13.88;59.65;100734.03;5009925;28;20525;-78
2022/09/21 07:00:06;;;;;;;8.02;2.83;;;;;;;13.65;60.13;100728.94;5027370;28;20045;-81
2022/09/21 07:02:31;;;;;;;6.30;2.58;;;;;;;13.06;58.29;100592.31;5026650;28;20546;-80
2022/09/21 07:04:57;;;;;;;5.28;2.20;;;;;;;14.07;58.11;100717.19;5027020;28;20045;-78
2022/09/21 07:07:23;;;;;;;3.15;1.52;;;;;;;14.29;56.51;100714.31;5026759;28;20049;-79
2022/09/21 07:09:49;;;;;;;4.43;2.47;;;;;;;14.47;56.23;100737.00;5027549;28;20710;-78
2022/09/21 07:12:15;;;;;;;6.22;3.65;;;;;;;13.95;55.84;100617.03;5027208;28;20413;-78
2022/09/21 07:14:45;;;;;;;11.90;2.47;;;;;;;13.92;56.80;100595.97;5027358;28;20053;-79
2022/09/21 07:17:13;;;;;;;11.57;3.35;;;;;;;14.99;55.02;100741.72;5025158;28;20050;-80
2022/09/21 07:19:39;;;;;;;14.55;5.03;;;;;;;14.54;54.09;100678.00;5025904;28;20129;-78
2022/09/21 07:22:04;;;;;;;11.90;4.30;;;;;;;15.04;55.20;100712.59;5018267;28;20072;-77
2022/09/21 07:24:30;;;;;;;9.65;3.53;;;;;;;15.21;53.35;100710.56;5027123;28;20057;-78
2022/09/21 07:26:56;;;;;;;5.15;2.13;;;;;;;14.68;53.61;100614.41;5027558;28;20094;-79
2022/09/21 07:29:22;;;;;;;6.05;1.40;;;;;;;14.62;51.67;100601.31;5027274;28;20058;-79
2022/09/21 07:31:47;;;;;;;6.22;1.05;;;;;;;15.51;50.67;100740.97;5027471;28;20394;-77
2022/09/21 07:34:19;;;;;;;3.22;1.20;;;;;;;15.47;51.29;100704.88;5027387;28;20339;-78
2022/09/21 07:36:45;;;;;;;9.82;1.85;;;;;;;15.63;50.80;100738.13;5027972;28;20126;-78
2022/09/21 07:39:11;;;;;;;4.05;1.88;;;;;;;15.52;52.16;100700.44;5009138;28;20556;-77
2022/09/21 07:41:37;;;;;;;8.15;1.67;;;;;;;15.92;51.44;100743.88;5009420;28;20045;-79
2022/09/21 07:44:03;;;;;;;3.10;1.92;;;;;;;15.17;50.69;100603.13;5027211;28;20045;-78
2022/09/21 07:46:28;;;;;;;3.17;1.58;;;;;;;15.58;50.84;100654.47;5027270;28;20124;-79
2022/09/21 07:48:55;;;;;;;15.77;2.08;;;;;;;15.54;49.96;100734.75;5026993;28;20037;-78
2022/09/21 07:51:21;;;;;;;3.42;1.70;;;;;;;15.36;50.63;100741.22;5013110;28;20037;-78
2022/09/21 07:53:46;;;;;;;10.68;1.55;;;;;;;14.67;51.31;100612.69;5007121;28;20065;-79
2022/09/21 07:56:15;;;;;;;4.07;1.88;;;;;;;15.27;50.24;100636.47;5026714;28;20473;-79
2022/09/21 08:01:25;;;;;;;5.43;2.20;;;;;;;15.36;50.10;100580.78;5027361;28;20408;-76
2022/09/21 08:03:53;;;;;;;8.25;1.35;;;;;;;14.68;49.72;100632.91;5026283;28;20091;-79
2022/09/21 08:06:19;;;;;;;3.10;1.40;;;;;;;14.73;50.52;100628.47;5027443;28;20035;-79
2022/09/21 08:08:49;;;;;;;5.90;1.65;;;;;;;14.83;50.13;100597.50;5026756;28;20044;-80
2022/09/21 08:11:16;;;;;;;2.20;1.10;;;;;;;15.71;50.06;100745.09;5026603;28;20580;-80
2022/09/21 08:13:42;;;;;;;4.50;2.13;;;;;;;15.57;49.89;100697.72;5026917;28;20042;-81
2022/09/21 08:16:09;;;;;;;3.05;1.00;;;;;;;15.70;49.95;100723.06;5026565;28;20040;-80
2022/09/21 08:18:38;;;;;;;4.28;1.80;;;;;;;15.83;49.33;100718.47;5025061;28;20041;-81
2022/09/21 08:21:04;;;;;;;5.80;2.03;;;;;;;15.02;49.58;100584.88;5014868;28;20116;-79
2022/09/21 08:23:29;;;;;;;2.15;0.90;;;;;;;15.85;50.33;100731.66;5013777;28;20117;-80
2022/09/21 08:25:59;;;;;;;6.03;2.10;;;;;;;15.86;48.64;100712.25;5028071;28;20788;-80
2022/09/21 08:28:26;;;;;;;2.47;1.40;;;;;;;15.11;49.10;100597.94;5026153;28;20049;-79
2022/09/21 08:30:51;;;;;;;5.82;1.65;;;;;;;15.33;48.29;100609.03;5008787;28;20025;-81
2022/09/21 08:33:17;;;;;;;4.05;1.55;;;;;;;15.68;48.85;100653.41;5026943;28;20036;-77
2022/09/21 08:35:50;;;;;;;3.55;1.98;;;;;;;16.03;48.63;100734.88;5028329;28;20407;-80
2022/09/21 08:38:15;;;;;;;6.97;2.63;;;;;;;15.91;48.70;100700.69;5058596;28;20106;-76
2022/09/21 08:40:41;;;;;;;3.28;2.35;;;;;;;16.19;48.97;100726.66;5065061;28;20148;-80
2022/09/21 08:43:11;;;;;;;8.25;2.05;;;;;;;15.85;48.45;100695.50;5048773;28;20536;-81
2022/09/21 08:45:44;;;;;;;2.63;0.90;;;;;;;15.73;46.65;100611.03;5047459;28;20055;-80
2022/09/21 08:48:17;;;;;;;2.65;1.38;;;;;;;16.00;47.04;100705.81;5046642;28;20072;-79
2022/09/21 08:50:55;;;;;;;3.55;0.70;;;;;;;15.49;46.70;100592.00;5028762;28;20132;-79
2022/09/21 08:53:47;;;;;;;3.85;0.80;;;;;;;15.59;47.74;100576.84;5007181;28;20050;-77
2022/09/21 08:56:14;;;;;;;3.65;1.50;;;;;;;16.31;47.11;100720.28;5027199;28;20037;-81
2022/09/21 08:58:40;;;;;;;2.83;1.00;;;;;;;16.13;47.51;100684.41;5007461;28;20145;-79
2022/09/21 09:01:18;;;;;;;3.03;0.75;;;;;;;16.27;46.71;100722.09;5006736;28;20034;-80
2022/09/21 09:04:16;;;;;;;6.70;1.00;;;;;;;15.57;47.68;100589.25;5007796;28;20125;-82
2022/09/21 09:07:06;;;;;;;10.38;1.90;;;;;;;16.12;48.26;100706.50;5001513;28;20046;-80
2022/09/21 09:09:40;;;;;;;3.97;1.38;;;;;;;15.85;48.69;100703.44;5010878;28;20041;-81
2022/09/21 09:12:24;;;;;;;1.75;0.88;;;;;;;16.30;49.65;100716.75;5009693;28;20057;-80
2022/09/21 09:14:55;;;;;;;6.63;1.65;;;;;;;16.57;48.34;100701.22;5009357;28;20062;-81
2022/09/21 09:17:45;;;;;;;2.00;0.93;;;;;;;16.62;48.75;100705.53;5008569;28;20129;-81
2022/09/21 09:20:14;;;;;;;4.25;1.85;;;;;;;16.14;50.10;100694.09;5005677;28;20141;-80
2022/09/21 09:22:47;;;;;;;4.47;1.50;;;;;;;16.30;49.28;100684.97;4990140;28;20070;-82
2022/09/21 09:25:20;;;;;;;15.05;1.63;;;;;;;16.48;48.67;100694.31;5008819;28;20053;-79
2022/09/21 09:27:51;;;;;;;5.60;1.23;;;;;;;16.25;49.36;100658.59;5010287;28;20108;-81
2022/09/21 09:30:24;;;;;;;5.70;1.88;;;;;;;16.01;48.50;100614.94;5009920;28;20054;-81
2022/09/21 09:33:10;;;;;;;2.38;1.10;;;;;;;16.16;47.30;100605.81;5009370;28;20462;-81
2022/09/21 09:35:39;;;;;;;1.52;1.02;;;;;;;16.21;48.21;100699.25;5008985;28;20057;-79
2022/09/21 09:38:16;;;;;;;1.25;0.60;;;;;;;16.60;48.28;100696.75;5007882;28;20382;-81
2022/09/21 09:40:57;;;;;;;3.13;1.40;;;;;;;16.61;50.15;100692.31;4991607;28;20754;-81
2022/09/21 09:43:54;;;;;;;3.40;0.98;;;;;;;16.40;45.21;100688.31;5009099;28;20056;-80
2022/09/21 09:46:33;;;;;;;3.33;1.00;;;;;;;16.49;45.38;100684.63;5008834;28;20047;-83
2022/09/21 09:49:11;;;;;;;4.90;1.10;;;;;;;16.46;45.18;100681.13;5009330;28;20121;-81
2022/09/21 09:51:38;;;;;;;2.22;0.80;;;;;;;16.38;44.83;100666.28;5007201;28;20026;-82
2022/09/21 09:54:05;;;;;;;5.95;1.23;;;;;;;16.44;44.28;100674.97;5008639;28;20497;-79
2022/09/21 09:56:31;;;;;;;1.60;0.75;;;;;;;16.76;45.06;100668.13;5009264;28;20077;-80
2022/09/21 09:59:06;;;;;;;1.55;0.65;;;;;;;16.32;45.97;100669.03;5019937;28;20092;-80
2022/09/21 10:01:45;;;;;;;1.95;0.95;;;;;;;16.55;44.90;100680.06;5006948;28;20094;-80
2022/09/21 10:04:16;;;;;;;4.10;1.10;;;;;;;15.76;46.97;100561.59;5008543;28;20042;-80
2022/09/21 10:06:43;;;;;;;1.80;0.90;;;;;;;16.71;45.12;100647.94;5009185;28;20037;-81
2022/09/21 10:09:33;;;;;;;0.90;0.60;;;;;;;16.68;45.03;100672.72;5008632;28;20050;-79
2022/09/21 10:12:02;;;;;;;1.00;0.55;;;;;;;16.28;45.19;100640.91;5023359;28;20089;-80
2022/09/21 10:14:33;;;;;;;1.52;0.80;;;;;;;16.35;45.67;100658.41;5028586;28;20046;-80
2022/09/21 10:17:05;;;;;;;1.85;0.57;;;;;;;16.58;44.27;100681.78;5012484;28;20162;-80
2022/09/21 10:19:31;;;;;;;1.83;0.45;;;;;;;16.41;43.13;100687.41;4991022;28;20076;-81
2022/09/21 10:21:58;;;;;;;1.95;0.60;;;;;;;16.14;42.69;100643.81;5004070;28;20084;-80
2022/09/21 10:24:33;;;;;;;2.25;0.60;;;;;;;16.66;41.67;100675.41;5010843;28;20044;-79
2022/09/21 10:27:15;;;;;;;2.67;0.80;;;;;;;16.63;42.22;100670.19;5027329;28;20049;-79
2022/09/21 10:29:46;;;;;;;4.10;0.75;;;;;;;16.57;42.87;100675.59;5027984;28;20165;-81
2022/09/21 10:32:11;;;;;;;1.20;0.70;;;;;;;16.62;42.64;100672.84;5028161;28;20049;-81
2022/09/21 10:34:39;;;;;;;1.23;0.80;;;;;;;17.06;41.41;100679.88;5028289;28;20465;-79
2022/09/21 10:37:27;;;;;;;5.28;0.93;;;;;;;16.49;42.47;100666.94;5028313;28;20037;-82
2022/09/21 10:39:54;;;;;;;3.13;0.90;;;;;;;16.03;41.88;100538.13;5028333;28;20091;-81
2022/09/21 10:42:20;;;;;;;0.98;0.60;;;;;;;16.55;41.82;100631.50;5028685;28;20048;-80
2022/09/21 10:44:49;;;;;;;3.17;0.85;;;;;;;16.78;42.43;100637.16;5028894;28;20038;-82
2022/09/21 10:47:36;;;;;;;2.10;0.80;;;;;;;17.38;41.27;100635.81;5019008;28;20045;-79
2022/09/21 10:50:07;;;;;;;1.23;0.70;;;;;;;17.61;43.26;100653.84;5006283;28;20049;-82
2022/09/21 10:52:42;;;;;;;1.63;0.57;;;;;;;16.99;39.91;100548.38;4987101;28;20055;-80
2022/09/21 10:55:17;;;;;;;3.25;0.90;;;;;;;18.03;41.36;100612.97;5003913;28;20042;-80
2022/09/21 10:57:44;;;;;;;3.08;0.82;;;;;;;16.85;39.32;100531.94;5017007;28;20122;-80
2022/09/21 11:00:24;;;;;;;7.47;1.40;;;;;;;17.43;40.06;100549.03;5027269;28;20041;-79
2022/09/21 11:02:50;;;;;;;4.63;1.25;;;;;;;18.16;41.39;100624.97;5026812;28;20045;-80
2022/09/21 11:05:24;;;;;;;1.55;0.80;;;;;;;18.13;40.91;100641.88;5009864;28;20088;-81
2022/09/21 11:08:15;;;;;;;2.25;0.77;;;;;;;17.65;40.42;100638.69;5027233;28;20051;-80
2022/09/21 11:10:50;;;;;;;1.85;0.60;;;;;;;17.86;38.77;100555.88;5002569;28;20048;-80
2022/09/21 11:13:22;;;;;;;14.05;0.90;;;;;;;18.91;38.58;100636.06;5027248;28;20065;-80
2022/09/21 11:16:11;;;;;;;1.02;0.50;;;;;;;18.79;38.99;100633.78;5027296;28;20180;-78
2022/09/21 11:18:49;;;;;;;1.67;0.80;;;;;;;18.34;39.43;100629.75;5026631;28;20816;-83
2022/09/21 11:21:26;;;;;;;1.42;0.88;;;;;;;17.80;39.71;100524.16;5016752;28;20058;-80
2022/09/21 11:24:29;;;;;;;5.18;1.02;;;;;;;19.06;37.86;100624.09;5015376;28;20485;-80
2022/09/21 11:27:05;;;;;;;0.80;0.43;;;;;;;18.89;37.46;100618.44;5007256;28;20053;-80
2022/09/21 11:29:52;;;;;;;0.95;0.65;;;;;;;18.41;38.48;100624.28;5006833;28;20042;-80
2022/09/21 11:32:52;;;;;;;1.35;0.55;;;;;;;18.89;38.03;100621.09;5008057;28;20054;-78
2022/09/21 11:35:25;;;;;;;0.60;0.40;;;;;;;18.70;37.87;100618.94;5007759;28;20061;-77
2022/09/21 11:38:25;;;;;;;1.65;0.70;;;;;;;18.81;37.68;100616.00;5007929;28;20049;-80
2022/09/21 11:40:54;;;;;;;1.15;0.70;;;;;;;18.69;37.82;100611.91;5007253;28;20049;-80
2022/09/21 11:44:00;;;;;;;12.95;0.95;;;;;;;18.93;38.65;100602.31;4996019;28;20049;-80
2022/09/21 11:46:37;;;;;;;1.42;0.75;;;;;;;19.16;37.16;100590.09;5008539;28;20109;-82
2022/09/21 11:49:28;;;;;;;1.90;0.70;;;;;;;18.74;37.44;100596.69;5026804;28;20057;-82
2022/09/21 11:52:15;;;;;;;1.38;0.50;;;;;;;18.35;36.78;100504.00;5023136;28;20136;-80